KAVP/AVP METAR and TAF weather

Enter ICAO airport designator
Station Type Date Time Source
KAVP METAR 2020/09/18 15:54 UTC NOAA

KAVP 181554Z 01011G18KT 10SM BKN065 20/07 A3006 RMK AO2 SLP172 T02000067


Station Type Date Time Source
KAVP Decoded METAR 2020/09/18 15:54 UTC NOAA

WILKES-BARRE/SCRANTON INTERNATIONAL , PA, United States (KAVP) 41-20N 75-44W 291M
Sep 18, 2020 - 11:54 AM EDT / 2020.09.18 1554 UTC
Wind: from the N (010 degrees) at 13 MPH (11 KT) gusting to 21 MPH (18 KT):0
Visibility: 10 mile(s):0
Sky conditions: mostly cloudy
Temperature: 68.0 F (20.0 C)
Dew Point: 44.1 F (6.7 C)
Relative Humidity: 41%
Pressure (altimeter): 30.06 in. Hg (1017 hPa)
ob: KAVP 181554Z 01011G18KT 10SM BKN065 20/07 A3006 RMK AO2 SLP172 T02000067
cycle: 16

Station Type Date Time Source
KAVP TAF 2020/09/18 15:33 UTC NOAA

TAF
AMD KAVP 181431Z 1815/1912 01009KT P6SM BKN025
FM181600 36011KT P6SM FEW050
FM181900 35012G20KT P6SM FEW250
FM190200 02008KT P6SM SKC
FM190600 07005KT P6SM SKC

Example: see airport list